createdAt,value
2023-04-26T00:00:20.817Z,98768.00
2023-04-26T00:02:51.868Z,98759.00
2023-04-26T00:05:25.048Z,98757.00
2023-04-26T00:07:56.420Z,98759.00
2023-04-26T00:10:27.305Z,98754.00
2023-04-26T00:12:58.218Z,98757.00
2023-04-26T00:15:29.117Z,98754.00
2023-04-26T00:18:00.062Z,98758.00
2023-04-26T00:20:30.976Z,98759.00
2023-04-26T00:23:03.035Z,98757.00
2023-04-26T00:25:33.972Z,98760.00
2023-04-26T00:28:05.069Z,98770.00
2023-04-26T00:30:37.705Z,98764.00
2023-04-26T00:33:08.915Z,98764.00
2023-04-26T00:35:39.850Z,98767.00
2023-04-26T00:38:10.869Z,98762.00
2023-04-26T00:40:41.757Z,98764.00
2023-04-26T00:43:12.731Z,98768.00
2023-04-26T00:45:43.659Z,98785.00
2023-04-26T00:48:15.984Z,98767.00
2023-04-26T00:50:50.585Z,98767.00
2023-04-26T00:53:22.226Z,98781.00
2023-04-26T00:55:54.273Z,98768.00
2023-04-26T00:58:26.229Z,98780.00
2023-04-26T01:00:57.250Z,98772.00
2023-04-26T01:03:28.644Z,98777.00
2023-04-26T01:05:59.793Z,98775.00
2023-04-26T01:08:30.775Z,98783.00
2023-04-26T01:11:01.979Z,98778.00
2023-04-26T01:13:33.321Z,98774.00
2023-04-26T01:16:06.347Z,98773.00
2023-04-26T01:18:37.230Z,98778.00
2023-04-26T01:21:08.232Z,98774.00
2023-04-26T01:23:39.147Z,98784.00
2023-04-26T01:26:10.046Z,98777.00
2023-04-26T01:28:41.238Z,98771.00
2023-04-26T01:31:12.375Z,98773.00
2023-04-26T01:33:43.323Z,98765.00
2023-04-26T01:36:14.284Z,98763.00
2023-04-26T01:38:45.183Z,98767.00
2023-04-26T01:41:16.230Z,98767.00
2023-04-26T01:43:47.119Z,98765.00
2023-04-26T01:46:18.071Z,98765.00
2023-04-26T01:48:49.135Z,98767.00
2023-04-26T01:51:20.119Z,98770.00
2023-04-26T01:53:51.199Z,98766.00
2023-04-26T01:56:24.474Z,98782.00
2023-04-26T01:58:56.492Z,98770.00
2023-04-26T02:01:27.576Z,98773.00
2023-04-26T02:03:58.576Z,98775.00
2023-04-26T02:06:29.537Z,98771.00
2023-04-26T02:09:00.445Z,98777.00
2023-04-26T02:11:31.769Z,98771.00
2023-04-26T02:14:02.686Z,98765.00
2023-04-26T02:16:33.667Z,98764.00
2023-04-26T02:19:05.379Z,98762.00
2023-04-26T02:21:52.776Z,98763.00
2023-04-26T02:24:24.940Z,98761.00
2023-04-26T02:26:57.766Z,98772.00
2023-04-26T02:29:42.998Z,98775.00
2023-04-26T02:32:22.189Z,98762.00
2023-04-26T02:34:53.092Z,98763.00
2023-04-26T02:37:24.008Z,98781.00
2023-04-26T02:39:54.883Z,98775.00
2023-04-26T02:42:26.061Z,98777.00
2023-04-26T02:44:57.066Z,98780.00
2023-04-26T02:47:28.036Z,98782.00
2023-04-26T02:49:59.250Z,98785.00
2023-04-26T02:52:30.244Z,98778.00
2023-04-26T02:55:02.360Z,98791.00
2023-04-26T02:57:33.566Z,98791.00
2023-04-26T03:00:05.632Z,98777.00
2023-04-26T03:02:36.879Z,98793.00
2023-04-26T03:05:09.509Z,98808.00
2023-04-26T03:07:40.622Z,98785.00
2023-04-26T03:10:11.814Z,98781.00
2023-04-26T03:12:42.684Z,98774.00
2023-04-26T03:15:13.613Z,98780.00
2023-04-26T03:17:44.750Z,98787.00
2023-04-26T03:20:16.329Z,98780.00
2023-04-26T03:22:47.500Z,98801.00
2023-04-26T03:25:18.569Z,98785.00
2023-04-26T03:27:49.774Z,98787.00
2023-04-26T03:30:20.922Z,98793.00
2023-04-26T03:32:53.830Z,98784.00
2023-04-26T03:35:24.802Z,98793.00
2023-04-26T03:37:58.499Z,98788.00
2023-04-26T03:40:29.907Z,98797.00
2023-04-26T03:43:01.634Z,98795.00
2023-04-26T03:45:32.623Z,98778.00
2023-04-26T03:48:03.747Z,98792.00
2023-04-26T03:50:34.752Z,98779.00
2023-04-26T03:53:05.677Z,98781.00
2023-04-26T03:55:37.754Z,98783.00
2023-04-26T03:58:09.096Z,98787.00
2023-04-26T04:00:44.372Z,98795.00
2023-04-26T04:03:15.706Z,98784.00
2023-04-26T04:05:46.790Z,98795.00
2023-04-26T04:08:18.078Z,98787.00
2023-04-26T04:10:49.203Z,98794.00
2023-04-26T04:13:20.133Z,98793.00
2023-04-26T04:15:51.842Z,98794.00
2023-04-26T04:18:22.789Z,98794.00
2023-04-26T04:20:53.867Z,98791.00
2023-04-26T04:23:25.112Z,98786.00
2023-04-26T04:25:55.989Z,98793.00
2023-04-26T04:28:27.605Z,98792.00
2023-04-26T04:30:58.642Z,98794.00
2023-04-26T04:33:29.683Z,98793.00
2023-04-26T04:36:00.587Z,98794.00
2023-04-26T04:38:31.494Z,98802.00
2023-04-26T04:41:02.556Z,98798.00
2023-04-26T04:43:33.968Z,98802.00
2023-04-26T04:46:04.942Z,98802.00
2023-04-26T04:48:38.677Z,98805.00
2023-04-26T04:51:09.777Z,98798.00
2023-04-26T04:53:40.803Z,98800.00
2023-04-26T04:56:12.020Z,98808.00
2023-04-26T04:58:42.889Z,98806.00
2023-04-26T05:01:13.812Z,98811.00
2023-04-26T05:03:44.794Z,98815.00
2023-04-26T05:06:15.816Z,98820.00
2023-04-26T05:08:47.131Z,98826.00
2023-04-26T05:11:18.032Z,98830.00
2023-04-26T05:13:51.580Z,98826.00
2023-04-26T05:16:23.723Z,98828.00
2023-04-26T05:18:54.670Z,98858.00
2023-04-26T05:21:25.739Z,98830.00
2023-04-26T05:23:56.640Z,98834.00
2023-04-26T05:26:27.563Z,98832.00
2023-04-26T05:28:58.576Z,98850.00
2023-04-26T05:31:29.562Z,98841.00
2023-04-26T05:34:00.526Z,98841.00
2023-04-26T05:36:32.851Z,98843.00
2023-04-26T05:39:05.782Z,98850.00
2023-04-26T05:41:36.700Z,98847.00
2023-04-26T05:44:07.547Z,98843.00
2023-04-26T05:46:38.459Z,98845.00
2023-04-26T05:49:09.624Z,98845.00
2023-04-26T05:51:40.862Z,98836.00
2023-04-26T05:54:11.757Z,98851.00
2023-04-26T05:56:42.760Z,98852.00
2023-04-26T05:59:13.841Z,98852.00
2023-04-26T06:01:44.757Z,98853.00
2023-04-26T06:04:15.958Z,98848.00
2023-04-26T06:06:47.028Z,98852.00
2023-04-26T06:09:20.053Z,98855.00
2023-04-26T06:11:51.269Z,98853.00
2023-04-26T06:14:29.931Z,98851.00
2023-04-26T06:17:01.872Z,98854.00
2023-04-26T06:19:32.807Z,98859.00
2023-04-26T06:22:03.766Z,98857.00
2023-04-26T06:24:34.659Z,98859.00
2023-04-26T06:27:05.540Z,98859.00
2023-04-26T06:29:36.474Z,98864.00
2023-04-26T06:32:07.429Z,98864.00
2023-04-26T06:34:38.845Z,98858.00
2023-04-26T06:37:09.809Z,98862.00
2023-04-26T06:39:40.925Z,98869.00
2023-04-26T06:42:11.856Z,98875.00
2023-04-26T06:44:42.745Z,98870.00
2023-04-26T06:47:14.465Z,98858.00
2023-04-26T06:49:45.677Z,98861.00
2023-04-26T06:52:16.652Z,98853.00
2023-04-26T06:54:56.508Z,98853.00
2023-04-26T06:57:28.565Z,98860.00
2023-04-26T06:59:59.462Z,98853.00
2023-04-26T07:02:31.292Z,98855.00
2023-04-26T07:05:02.726Z,98862.00
2023-04-26T07:07:33.805Z,98851.00
2023-04-26T07:10:05.224Z,98850.00
2023-04-26T07:12:36.477Z,98849.00
2023-04-26T07:15:09.323Z,98843.00
2023-04-26T07:17:40.207Z,98839.00
2023-04-26T07:20:11.838Z,98834.00
2023-04-26T07:22:42.890Z,98829.00
2023-04-26T07:25:14.127Z,98837.00
2023-04-26T07:27:45.191Z,98828.00
2023-04-26T07:30:16.305Z,98828.00
2023-04-26T07:32:47.355Z,98844.00
2023-04-26T07:35:18.316Z,98834.00
2023-04-26T07:37:49.311Z,98838.00
2023-04-26T07:40:22.785Z,98827.00
2023-04-26T07:42:53.931Z,98833.00
2023-04-26T07:45:24.854Z,98831.00
2023-04-26T07:47:55.885Z,98824.00
2023-04-26T07:50:26.929Z,98832.00
2023-04-26T07:52:57.899Z,98818.00
2023-04-26T07:55:28.968Z,98824.00
2023-04-26T07:57:59.883Z,98825.00
2023-04-26T08:00:30.960Z,98830.00
2023-04-26T08:03:01.986Z,98835.00
2023-04-26T08:05:33.127Z,98827.00
2023-04-26T08:08:04.538Z,98834.00
2023-04-26T08:10:35.443Z,98826.00
2023-04-26T08:13:06.608Z,98826.00
2023-04-26T08:15:37.864Z,98830.00
2023-04-26T08:18:08.885Z,98838.00
2023-04-26T08:20:39.953Z,98841.00
2023-04-26T08:23:11.102Z,98845.00
2023-04-26T08:25:42.066Z,98842.00
2023-04-26T08:28:14.592Z,98861.00
2023-04-26T08:30:45.636Z,98844.00
2023-04-26T08:33:18.379Z,98839.00
2023-04-26T08:35:49.315Z,98836.00
2023-04-26T08:38:22.792Z,98839.00
2023-04-26T08:40:56.250Z,98836.00
2023-04-26T08:43:28.490Z,98838.00
2023-04-26T08:46:00.258Z,98835.00
2023-04-26T08:48:36.529Z,98843.00
2023-04-26T08:51:09.265Z,98834.00
2023-04-26T08:53:41.495Z,98855.00
2023-04-26T08:56:13.135Z,98835.00
2023-04-26T08:58:44.096Z,98837.00
2023-04-26T09:01:16.313Z,98835.00
2023-04-26T09:03:47.924Z,98833.00
2023-04-26T09:06:19.673Z,98838.00
2023-04-26T09:08:53.367Z,98859.00
2023-04-26T09:11:24.402Z,98845.00
2023-04-26T09:13:55.356Z,98835.00
2023-04-26T09:16:37.115Z,98837.00
2023-04-26T09:19:08.085Z,98838.00
2023-04-26T09:21:47.270Z,98837.00
2023-04-26T09:24:18.149Z,98826.00
2023-04-26T09:27:03.259Z,98838.00
2023-04-26T09:29:34.444Z,98826.00
2023-04-26T09:32:05.924Z,98832.00
2023-04-26T09:34:46.991Z,98817.00
2023-04-26T09:37:18.073Z,98824.00
2023-04-26T09:39:48.953Z,98826.00
2023-04-26T09:42:19.921Z,98817.00
2023-04-26T09:44:51.926Z,98815.00
2023-04-26T09:47:23.131Z,98813.00
2023-04-26T09:49:54.118Z,98814.00
2023-04-26T09:52:25.102Z,98817.00
2023-04-26T09:54:56.022Z,98818.00
2023-04-26T09:57:26.950Z,98820.00
2023-04-26T09:59:57.990Z,98815.00
2023-04-26T10:02:30.177Z,98820.00
2023-04-26T10:05:03.088Z,98814.00
2023-04-26T10:07:34.766Z,98815.00
2023-04-26T10:10:07.612Z,98815.00
2023-04-26T10:12:42.110Z,98811.00
2023-04-26T10:15:13.099Z,98808.00
2023-04-26T10:17:44.365Z,98805.00
2023-04-26T10:20:16.978Z,98809.00
2023-04-26T10:22:53.716Z,98807.00
2023-04-26T10:25:38.332Z,98804.00
2023-04-26T10:28:09.352Z,98805.00
2023-04-26T10:30:58.601Z,98805.00
2023-04-26T10:33:29.634Z,98806.00
2023-04-26T10:36:08.599Z,98802.00
2023-04-26T10:38:42.896Z,98793.00
2023-04-26T10:41:40.049Z,98795.00
2023-04-26T10:44:41.142Z,98793.00
2023-04-26T10:47:37.335Z,98792.00
2023-04-26T10:50:11.372Z,98780.00
2023-04-26T10:53:03.941Z,98782.00
2023-04-26T10:55:42.497Z,98781.00
2023-04-26T10:58:34.144Z,98782.00
2023-04-26T11:01:11.938Z,98773.00
2023-04-26T11:03:45.635Z,98779.00
2023-04-26T11:06:17.456Z,98775.00
2023-04-26T11:08:48.314Z,98772.00
2023-04-26T11:11:19.775Z,98781.00
2023-04-26T11:13:51.093Z,98767.00
2023-04-26T11:16:22.634Z,98792.00
2023-04-26T11:18:55.872Z,98769.00
2023-04-26T11:21:27.026Z,98766.00
2023-04-26T11:23:57.967Z,98758.00
2023-04-26T11:26:35.233Z,98761.00
2023-04-26T11:29:09.696Z,98740.00
2023-04-26T11:31:40.877Z,98741.00
2023-04-26T11:34:11.762Z,98738.00
2023-04-26T11:36:44.765Z,98725.00
2023-04-26T11:39:15.687Z,98736.00
2023-04-26T11:41:46.754Z,98718.00
2023-04-26T11:44:21.041Z,98719.00
2023-04-26T11:46:52.421Z,98720.00
2023-04-26T11:49:23.616Z,98729.00
2023-04-26T11:51:55.070Z,98716.00
2023-04-26T11:54:30.771Z,98709.00
2023-04-26T11:57:15.401Z,98708.00
2023-04-26T11:59:47.768Z,98700.00
2023-04-26T12:02:20.713Z,98694.00
2023-04-26T12:04:59.331Z,98697.00
2023-04-26T12:07:39.157Z,98691.00
2023-04-26T12:10:22.347Z,98702.00
2023-04-26T12:12:56.948Z,98695.00
2023-04-26T12:15:33.206Z,98701.00
2023-04-26T12:18:09.112Z,98691.00
2023-04-26T12:20:43.611Z,98696.00
2023-04-26T12:23:17.066Z,98698.00
2023-04-26T12:25:56.724Z,98692.00
2023-04-26T12:28:27.782Z,98692.00
2023-04-26T12:30:59.677Z,98685.00
2023-04-26T12:33:31.361Z,98676.00
2023-04-26T12:36:12.959Z,98682.00
2023-04-26T12:38:43.872Z,98682.00
2023-04-26T12:41:14.961Z,98683.00
2023-04-26T12:43:45.989Z,98676.00
2023-04-26T12:46:17.372Z,98687.00
2023-04-26T12:48:48.309Z,98682.00
2023-04-26T12:51:19.214Z,98675.00
2023-04-26T12:53:50.921Z,98670.00
2023-04-26T12:56:22.193Z,98673.00
2023-04-26T12:58:53.123Z,98672.00
2023-04-26T13:01:24.105Z,98671.00
2023-04-26T13:03:56.592Z,98667.00
2023-04-26T13:06:28.727Z,98678.00
2023-04-26T13:08:59.853Z,98672.00
2023-04-26T13:11:30.891Z,98676.00
2023-04-26T13:14:02.235Z,98681.00
2023-04-26T13:16:34.133Z,98679.00
2023-04-26T13:19:05.064Z,98674.00
2023-04-26T13:21:36.213Z,98666.00
2023-04-26T13:24:07.623Z,98664.00
2023-04-26T13:26:39.003Z,98666.00
2023-04-26T13:29:10.078Z,98655.00
2023-04-26T13:31:41.162Z,98661.00
2023-04-26T13:34:13.133Z,98657.00
2023-04-26T13:36:44.075Z,98654.00
2023-04-26T13:39:15.626Z,98655.00
2023-04-26T13:41:46.684Z,98656.00
2023-04-26T13:44:17.979Z,98659.00
2023-04-26T13:46:48.988Z,98663.00
2023-04-26T13:49:22.070Z,98665.00
2023-04-26T13:51:53.815Z,98661.00
2023-04-26T13:54:28.034Z,98664.00
2023-04-26T13:56:59.459Z,98661.00
2023-04-26T13:59:30.486Z,98686.00
2023-04-26T14:02:01.492Z,98655.00
2023-04-26T14:04:32.591Z,98657.00
2023-04-26T14:07:03.591Z,98664.00
2023-04-26T14:09:34.496Z,98658.00
2023-04-26T14:12:08.808Z,98649.00
2023-04-26T14:14:40.091Z,98644.00
2023-04-26T14:17:11.287Z,98642.00
2023-04-26T14:19:42.305Z,98637.00
2023-04-26T14:22:13.358Z,98638.00
2023-04-26T14:24:44.278Z,98638.00
2023-04-26T14:27:15.251Z,98637.00
2023-04-26T14:29:46.365Z,98628.00
2023-04-26T14:32:17.276Z,98641.00
2023-04-26T14:34:48.303Z,98629.00
2023-04-26T14:37:22.869Z,98636.00
2023-04-26T14:39:53.956Z,98631.00
2023-04-26T14:42:24.918Z,98635.00
2023-04-26T14:44:59.133Z,98637.00
2023-04-26T14:47:31.066Z,98637.00
2023-04-26T14:50:01.997Z,98644.00
2023-04-26T14:52:36.283Z,98655.00
2023-04-26T14:55:08.199Z,98632.00
2023-04-26T14:57:41.079Z,98643.00
2023-04-26T15:00:15.350Z,98633.00
2023-04-26T15:02:46.930Z,98647.00
2023-04-26T15:05:18.337Z,98642.00
2023-04-26T15:07:49.246Z,98645.00
2023-04-26T15:10:20.989Z,98642.00
2023-04-26T15:12:52.425Z,98653.00
2023-04-26T15:15:24.190Z,98651.00
2023-04-26T15:17:55.351Z,98653.00
2023-04-26T15:20:26.743Z,98639.00
2023-04-26T15:22:57.721Z,98638.00
2023-04-26T15:25:28.598Z,98625.00
2023-04-26T15:27:59.512Z,98627.00
2023-04-26T15:30:30.707Z,98626.00
2023-04-26T15:33:02.684Z,98656.00
2023-04-26T15:35:34.273Z,98622.00
2023-04-26T15:38:05.202Z,98625.00
2023-04-26T15:40:38.141Z,98623.00
2023-04-26T15:43:09.208Z,98637.00
2023-04-26T15:45:40.193Z,98619.00
2023-04-26T15:48:12.123Z,98618.00
2023-04-26T15:50:43.219Z,98614.00
2023-04-26T15:53:14.216Z,98616.00
2023-04-26T15:55:45.124Z,98621.00
2023-04-26T15:58:16.320Z,98616.00
2023-04-26T16:00:47.258Z,98618.00
2023-04-26T16:03:18.377Z,98621.00
2023-04-26T16:05:49.524Z,98609.00
2023-04-26T16:08:38.766Z,98609.00
2023-04-26T16:11:11.266Z,98621.00
2023-04-26T16:13:42.130Z,98617.00
2023-04-26T16:16:13.279Z,98625.00
2023-04-26T16:18:44.503Z,98623.00
2023-04-26T16:21:15.408Z,98624.00
2023-04-26T16:23:46.362Z,98618.00
2023-04-26T16:26:17.873Z,98617.00
2023-04-26T16:28:49.814Z,98619.00
2023-04-26T16:31:22.351Z,98613.00
2023-04-26T16:33:53.209Z,98620.00
2023-04-26T16:36:25.167Z,98632.00
2023-04-26T16:38:56.704Z,98622.00
2023-04-26T16:41:28.113Z,98628.00
2023-04-26T16:43:59.081Z,98621.00
2023-04-26T16:46:30.026Z,98629.00
2023-04-26T16:49:01.017Z,98615.00
2023-04-26T16:51:32.065Z,98613.00
2023-04-26T16:54:03.292Z,98615.00
2023-04-26T16:56:34.292Z,98618.00
2023-04-26T16:59:05.182Z,98622.00
2023-04-26T17:01:36.387Z,98623.00
2023-04-26T17:04:08.195Z,98622.00
2023-04-26T17:06:40.055Z,98627.00
2023-04-26T17:09:11.238Z,98647.00
2023-04-26T17:11:43.670Z,98637.00
2023-04-26T17:14:14.706Z,98634.00
2023-04-26T17:16:46.121Z,98650.00
2023-04-26T17:19:17.332Z,98645.00
2023-04-26T17:21:48.244Z,98644.00
2023-04-26T17:24:19.565Z,98648.00
2023-04-26T17:26:51.107Z,98648.00
2023-04-26T17:29:22.007Z,98647.00
2023-04-26T17:31:52.953Z,98644.00
2023-04-26T17:34:23.948Z,98652.00
2023-04-26T17:36:54.821Z,98648.00
2023-04-26T17:39:25.981Z,98668.00
2023-04-26T17:41:56.936Z,98655.00
2023-04-26T17:44:27.884Z,98655.00
2023-04-26T17:46:58.782Z,98661.00
2023-04-26T17:49:29.782Z,98663.00
2023-04-26T17:52:00.664Z,98658.00
2023-04-26T17:54:31.734Z,98652.00
2023-04-26T17:57:03.086Z,98655.00
2023-04-26T17:59:34.001Z,98656.00
2023-04-26T18:02:04.984Z,98669.00
2023-04-26T18:04:36.195Z,98677.00
2023-04-26T18:07:07.719Z,98663.00
2023-04-26T18:09:38.670Z,98667.00
2023-04-26T18:12:09.759Z,98670.00
2023-04-26T18:14:44.939Z,98675.00
2023-04-26T18:17:16.276Z,98683.00
2023-04-26T18:19:47.270Z,98678.00
2023-04-26T18:22:18.197Z,98680.00
2023-04-26T18:24:49.178Z,98682.00
2023-04-26T18:27:20.147Z,98676.00
2023-04-26T18:29:51.103Z,98684.00
2023-04-26T18:32:22.193Z,98689.00
2023-04-26T18:34:53.062Z,98693.00
2023-04-26T18:37:24.343Z,98696.00
2023-04-26T18:39:55.229Z,98697.00
2023-04-26T18:42:26.125Z,98728.00
2023-04-26T18:44:57.079Z,98706.00
2023-04-26T18:47:28.106Z,98708.00
2023-04-26T18:49:59.189Z,98718.00
2023-04-26T18:52:30.125Z,98713.00
2023-04-26T18:55:01.122Z,98715.00
2023-04-26T18:57:32.037Z,98719.00
2023-04-26T19:00:05.287Z,98716.00
2023-04-26T19:02:40.794Z,98717.00
2023-04-26T19:05:13.221Z,98719.00
2023-04-26T19:07:45.655Z,98715.00
2023-04-26T19:10:16.570Z,98733.00
2023-04-26T19:12:48.759Z,98729.00
2023-04-26T19:15:19.662Z,98735.00
2023-04-26T19:17:50.855Z,98743.00
2023-04-26T19:20:21.901Z,98741.00
2023-04-26T19:22:53.085Z,98746.00
2023-04-26T19:25:24.471Z,98753.00
2023-04-26T19:27:55.443Z,98746.00
2023-04-26T19:30:26.793Z,98750.00
2023-04-26T19:32:58.087Z,98754.00
2023-04-26T19:35:29.147Z,98752.00
2023-04-26T19:38:00.088Z,98762.00
2023-04-26T19:40:30.978Z,98760.00
2023-04-26T19:43:01.899Z,98768.00
2023-04-26T19:45:32.755Z,98766.00
2023-04-26T19:48:04.706Z,98774.00
2023-04-26T19:50:43.109Z,98780.00
2023-04-26T19:53:15.410Z,98779.00
2023-04-26T19:55:46.344Z,98774.00
2023-04-26T19:58:17.324Z,98783.00
2023-04-26T20:00:48.251Z,98776.00
2023-04-26T20:03:19.305Z,98774.00
2023-04-26T20:05:50.517Z,98771.00
2023-04-26T20:08:21.448Z,98781.00
2023-04-26T20:10:52.299Z,98780.00
2023-04-26T20:13:23.267Z,98779.00
2023-04-26T20:15:54.124Z,98782.00
2023-04-26T20:18:25.461Z,98777.00
2023-04-26T20:20:56.433Z,98778.00
2023-04-26T20:23:27.655Z,98782.00
2023-04-26T20:25:58.727Z,98784.00
2023-04-26T20:28:30.654Z,98784.00
2023-04-26T20:31:01.542Z,98774.00
2023-04-26T20:33:32.507Z,98780.00
2023-04-26T20:36:03.661Z,98776.00
2023-04-26T20:38:34.601Z,98775.00
2023-04-26T20:41:05.449Z,98774.00
2023-04-26T20:43:36.317Z,98802.00
2023-04-26T20:46:07.290Z,98782.00
2023-04-26T20:48:38.570Z,98778.00
2023-04-26T20:51:09.429Z,98773.00
2023-04-26T20:53:41.015Z,98785.00
2023-04-26T20:56:11.945Z,98784.00
2023-04-26T20:58:42.832Z,98780.00
2023-04-26T21:01:13.787Z,98784.00
2023-04-26T21:03:44.812Z,98783.00
2023-04-26T21:06:16.058Z,98783.00
2023-04-26T21:08:46.965Z,98777.00
2023-04-26T21:11:17.843Z,98779.00
2023-04-26T21:13:49.396Z,98785.00
2023-04-26T21:16:20.718Z,98778.00
2023-04-26T21:18:52.578Z,98775.00
2023-04-26T21:21:23.479Z,98775.00
2023-04-26T21:23:54.366Z,98778.00
2023-04-26T21:26:25.652Z,98781.00
2023-04-26T21:28:56.595Z,98785.00
2023-04-26T21:31:27.594Z,98778.00
2023-04-26T21:33:58.468Z,98815.00
2023-04-26T21:36:29.906Z,98783.00
2023-04-26T21:39:01.347Z,98780.00
2023-04-26T21:41:32.452Z,98778.00
2023-04-26T21:44:03.367Z,98775.00
2023-04-26T21:46:34.302Z,98778.00
2023-04-26T21:49:05.362Z,98776.00
2023-04-26T21:51:36.303Z,98774.00
2023-04-26T21:54:07.223Z,98777.00
2023-04-26T21:56:38.665Z,98775.00
2023-04-26T21:59:10.410Z,98782.00
2023-04-26T22:01:41.522Z,98777.00
2023-04-26T22:04:12.701Z,98791.00
2023-04-26T22:06:43.896Z,98791.00
2023-04-26T22:09:14.848Z,98794.00
2023-04-26T22:11:46.392Z,98795.00
2023-04-26T22:14:17.350Z,98792.00
2023-04-26T22:16:48.392Z,98794.00
2023-04-26T22:19:19.462Z,98795.00
2023-04-26T22:21:50.443Z,98794.00
2023-04-26T22:24:21.795Z,98795.00
2023-04-26T22:26:52.697Z,98802.00
2023-04-26T22:29:23.572Z,98799.00
2023-04-26T22:31:54.484Z,98799.00
2023-04-26T22:34:25.413Z,98807.00
2023-04-26T22:37:01.230Z,98791.00
2023-04-26T22:39:37.558Z,98797.00
2023-04-26T22:42:08.581Z,98795.00
2023-04-26T22:44:39.425Z,98805.00
2023-04-26T22:47:10.341Z,98795.00
2023-04-26T22:49:41.306Z,98805.00
2023-04-26T22:52:20.394Z,98803.00
2023-04-26T22:55:01.760Z,98801.00
2023-04-26T22:57:32.716Z,98806.00
2023-04-26T23:00:05.925Z,98806.00
2023-04-26T23:02:37.138Z,98813.00
2023-04-26T23:05:11.958Z,98802.00
2023-04-26T23:07:43.107Z,98811.00
2023-04-26T23:10:14.205Z,98810.00
2023-04-26T23:12:45.217Z,98817.00
2023-04-26T23:15:16.671Z,98806.00
2023-04-26T23:17:47.632Z,98832.00
2023-04-26T23:20:18.593Z,98819.00
2023-04-26T23:22:49.503Z,98814.00
2023-04-26T23:25:20.508Z,98810.00
2023-04-26T23:27:51.387Z,98806.00
2023-04-26T23:30:22.414Z,98810.00
2023-04-26T23:32:53.373Z,98807.00
2023-04-26T23:35:24.570Z,98806.00
2023-04-26T23:37:55.591Z,98805.00
2023-04-26T23:40:26.495Z,98804.00
2023-04-26T23:42:57.413Z,98803.00
2023-04-26T23:45:28.328Z,98804.00
2023-04-26T23:47:59.354Z,98810.00
2023-04-26T23:50:30.319Z,98810.00
2023-04-26T23:53:01.185Z,98818.00
2023-04-26T23:55:32.506Z,98809.00
2023-04-26T23:58:03.536Z,98818.00
